sensor_id;sensor_type;location;lat;lon;timestamp;temperature;humidity
34460;DHT22;20704;51.260;22.558;2023-11-19T00:00:30;2.20;1.00
34460;DHT22;20704;51.260;22.558;2023-11-19T00:02:53;1.70;1.00
34460;DHT22;20704;51.260;22.558;2023-11-19T00:04:55;2.10;1.00
34460;DHT22;20704;51.260;22.558;2023-11-19T00:06:58;3.90;1.00
34460;DHT22;20704;51.260;22.558;2023-11-19T00:09:05;2.10;1.00
34460;DHT22;20704;51.260;22.558;2023-11-19T00:11:07;2.10;1.00
34460;DHT22;20704;51.260;22.558;2023-11-19T00:13:10;3.50;1.00
34460;DHT22;20704;51.260;22.558;2023-11-19T00:15:13;2.20;1.00
34460;DHT22;20704;51.260;22.558;2023-11-19T00:17:15;2.20;1.00
34460;DHT22;20704;51.260;22.558;2023-11-19T00:19:18;2.20;1.00
34460;DHT22;20704;51.260;22.558;2023-11-19T00:21:21;2.10;1.00
34460;DHT22;20704;51.260;22.558;2023-11-19T00:23:24;3.60;99.90
34460;DHT22;20704;51.260;22.558;2023-11-19T00:25:26;2.10;1.00
34460;DHT22;20704;51.260;22.558;2023-11-19T00:27:28;2.10;1.00
34460;DHT22;20704;51.260;22.558;2023-11-19T00:29:31;3.80;1.00
34460;DHT22;20704;51.260;22.558;2023-11-19T00:31:33;2.20;1.00
34460;DHT22;20704;51.260;22.558;2023-11-19T00:33:36;2.20;1.00
34460;DHT22;20704;51.260;22.558;2023-11-19T00:35:51;4.60;1.00
34460;DHT22;20704;51.260;22.558;2023-11-19T00:37:53;3.70;1.00
34460;DHT22;20704;51.260;22.558;2023-11-19T00:39:56;3.20;1.00
34460;DHT22;20704;51.260;22.558;2023-11-19T00:41:59;2.30;1.00
34460;DHT22;20704;51.260;22.558;2023-11-19T00:44:01;2.50;1.00
34460;DHT22;20704;51.260;22.558;2023-11-19T00:46:06;2.30;1.00
34460;DHT22;20704;51.260;22.558;2023-11-19T00:48:09;2.30;1.00
34460;DHT22;20704;51.260;22.558;2023-11-19T00:50:11;3.70;1.00
34460;DHT22;20704;51.260;22.558;2023-11-19T00:52:16;2.40;1.00
34460;DHT22;20704;51.260;22.558;2023-11-19T00:54:18;3.30;1.00
34460;DHT22;20704;51.260;22.558;2023-11-19T00:56:20;2.40;1.00
34460;DHT22;20704;51.260;22.558;2023-11-19T00:58:23;2.50;1.00
34460;DHT22;20704;51.260;22.558;2023-11-19T01:00:25;2.40;1.00
34460;DHT22;20704;51.260;22.558;2023-11-19T01:02:29;2.40;1.00
34460;DHT22;20704;51.260;22.558;2023-11-19T01:04:35;2.40;1.00
34460;DHT22;20704;51.260;22.558;2023-11-19T01:06:38;2.40;99.90
34460;DHT22;20704;51.260;22.558;2023-11-19T01:08:50;2.40;99.90
34460;DHT22;20704;51.260;22.558;2023-11-19T01:10:53;2.40;99.90
34460;DHT22;20704;51.260;22.558;2023-11-19T01:12:55;2.40;99.90
34460;DHT22;20704;51.260;22.558;2023-11-19T01:14:57;3.90;99.90
34460;DHT22;20704;51.260;22.558;2023-11-19T01:17:01;2.50;99.90
34460;DHT22;20704;51.260;22.558;2023-11-19T01:19:03;2.40;99.90
34460;DHT22;20704;51.260;22.558;2023-11-19T01:21:18;2.40;99.90
34460;DHT22;20704;51.260;22.558;2023-11-19T01:23:21;2.40;99.90
34460;DHT22;20704;51.260;22.558;2023-11-19T01:25:23;3.40;99.90
34460;DHT22;20704;51.260;22.558;2023-11-19T01:27:26;2.40;99.90
34460;DHT22;20704;51.260;22.558;2023-11-19T01:29:28;4.20;99.90
34460;DHT22;20704;51.260;22.558;2023-11-19T01:31:30;2.40;99.90
34460;DHT22;20704;51.260;22.558;2023-11-19T01:33:36;2.40;99.90
34460;DHT22;20704;51.260;22.558;2023-11-19T01:35:39;2.40;99.90
34460;DHT22;20704;51.260;22.558;2023-11-19T01:37:41;2.40;99.90
34460;DHT22;20704;51.260;22.558;2023-11-19T01:39:44;2.30;99.90
34460;DHT22;20704;51.260;22.558;2023-11-19T01:42:00;2.40;99.90
34460;DHT22;20704;51.260;22.558;2023-11-19T01:44:03;4.00;99.90
34460;DHT22;20704;51.260;22.558;2023-11-19T01:46:06;2.30;99.90
34460;DHT22;20704;51.260;22.558;2023-11-19T01:48:09;2.40;99.90
34460;DHT22;20704;51.260;22.558;2023-11-19T01:50:14;2.20;99.90
34460;DHT22;20704;51.260;22.558;2023-11-19T01:52:17;2.20;99.20
34460;DHT22;20704;51.260;22.558;2023-11-19T01:54:20;4.30;99.90
34460;DHT22;20704;51.260;22.558;2023-11-19T01:56:23;2.20;99.90
34460;DHT22;20704;51.260;22.558;2023-11-19T01:58:26;2.20;99.90
34460;DHT22;20704;51.260;22.558;2023-11-19T02:00:30;2.20;99.90
34460;DHT22;20704;51.260;22.558;2023-11-19T02:02:35;3.70;99.90
34460;DHT22;20704;51.260;22.558;2023-11-19T02:04:38;3.70;99.90
34460;DHT22;20704;51.260;22.558;2023-11-19T02:06:41;2.20;99.90
34460;DHT22;20704;51.260;22.558;2023-11-19T02:08:45;2.10;99.90
34460;DHT22;20704;51.260;22.558;2023-11-19T02:10:47;2.10;99.90
34460;DHT22;20704;51.260;22.558;2023-11-19T02:12:50;2.10;99.90
34460;DHT22;20704;51.260;22.558;2023-11-19T02:14:53;3.90;99.90
34460;DHT22;20704;51.260;22.558;2023-11-19T02:16:56;3.10;99.90
34460;DHT22;20704;51.260;22.558;2023-11-19T02:18:58;2.20;99.90
34460;DHT22;20704;51.260;22.558;2023-11-19T02:21:01;3.40;99.90
34460;DHT22;20704;51.260;22.558;2023-11-19T02:23:03;2.10;99.90
34460;DHT22;20704;51.260;22.558;2023-11-19T02:25:19;3.00;99.90
34460;DHT22;20704;51.260;22.558;2023-11-19T02:28:07;2.10;99.90
34460;DHT22;20704;51.260;22.558;2023-11-19T02:29:50;2.10;99.90
34460;DHT22;20704;51.260;22.558;2023-11-19T02:31:53;3.70;99.90
34460;DHT22;20704;51.260;22.558;2023-11-19T02:33:57;2.20;99.90
34460;DHT22;20704;51.260;22.558;2023-11-19T02:35:59;2.40;99.90
34460;DHT22;20704;51.260;22.558;2023-11-19T02:38:02;2.20;99.90
34460;DHT22;20704;51.260;22.558;2023-11-19T02:40:06;2.20;99.90
34460;DHT22;20704;51.260;22.558;2023-11-19T02:42:11;2.20;99.90
34460;DHT22;20704;51.260;22.558;2023-11-19T02:44:15;3.30;99.90
34460;DHT22;20704;51.260;22.558;2023-11-19T02:46:17;3.20;99.90
34460;DHT22;20704;51.260;22.558;2023-11-19T02:48:21;2.30;99.90
34460;DHT22;20704;51.260;22.558;2023-11-19T02:50:25;2.20;99.90
34460;DHT22;20704;51.260;22.558;2023-11-19T02:52:27;2.20;99.90
34460;DHT22;20704;51.260;22.558;2023-11-19T02:54:30;2.30;99.90
34460;DHT22;20704;51.260;22.558;2023-11-19T02:56:36;2.10;99.90
34460;DHT22;20704;51.260;22.558;2023-11-19T02:58:43;3.00;99.90
34460;DHT22;20704;51.260;22.558;2023-11-19T03:00:46;2.70;99.90
34460;DHT22;20704;51.260;22.558;2023-11-19T03:02:59;2.10;91.50
34460;DHT22;20704;51.260;22.558;2023-11-19T03:05:02;2.10;97.60
34460;DHT22;20704;51.260;22.558;2023-11-19T03:07:07;2.00;70.60
34460;DHT22;20704;51.260;22.558;2023-11-19T03:09:09;2.30;99.90
34460;DHT22;20704;51.260;22.558;2023-11-19T03:11:12;2.00;99.90
34460;DHT22;20704;51.260;22.558;2023-11-19T03:13:15;2.00;99.90
34460;DHT22;20704;51.260;22.558;2023-11-19T03:15:18;2.00;99.90
34460;DHT22;20704;51.260;22.558;2023-11-19T03:17:20;2.00;99.90
34460;DHT22;20704;51.260;22.558;2023-11-19T03:19:23;2.90;99.90
34460;DHT22;20704;51.260;22.558;2023-11-19T03:21:28;2.20;99.90
34460;DHT22;20704;51.260;22.558;2023-11-19T03:23:31;2.50;99.90
34460;DHT22;20704;51.260;22.558;2023-11-19T03:25:33;2.00;99.90
34460;DHT22;20704;51.260;22.558;2023-11-19T03:27:37;2.70;99.90
34460;DHT22;20704;51.260;22.558;2023-11-19T03:29:40;3.70;99.90
34460;DHT22;20704;51.260;22.558;2023-11-19T03:31:43;2.20;99.90
34460;DHT22;20704;51.260;22.558;2023-11-19T03:33:45;2.90;99.90
34460;DHT22;20704;51.260;22.558;2023-11-19T03:35:49;2.10;99.90
34460;DHT22;20704;51.260;22.558;2023-11-19T03:37:52;3.30;99.90
34460;DHT22;20704;51.260;22.558;2023-11-19T03:39:56;2.40;99.90
34460;DHT22;20704;51.260;22.558;2023-11-19T03:42:04;3.20;99.90
34460;DHT22;20704;51.260;22.558;2023-11-19T03:44:07;2.10;99.90
34460;DHT22;20704;51.260;22.558;2023-11-19T03:46:21;2.00;99.90
34460;DHT22;20704;51.260;22.558;2023-11-19T03:48:24;2.00;99.90
34460;DHT22;20704;51.260;22.558;2023-11-19T03:50:26;2.00;99.90
34460;DHT22;20704;51.260;22.558;2023-11-19T03:52:30;2.00;99.90
34460;DHT22;20704;51.260;22.558;2023-11-19T03:54:32;2.30;99.90
34460;DHT22;20704;51.260;22.558;2023-11-19T03:56:35;2.20;99.90
34460;DHT22;20704;51.260;22.558;2023-11-19T03:58:38;2.00;99.90
34460;DHT22;20704;51.260;22.558;2023-11-19T04:00:40;3.70;99.90
34460;DHT22;20704;51.260;22.558;2023-11-19T04:02:43;2.00;99.90
34460;DHT22;20704;51.260;22.558;2023-11-19T04:04:45;2.00;99.90
34460;DHT22;20704;51.260;22.558;2023-11-19T04:06:48;2.00;99.90
34460;DHT22;20704;51.260;22.558;2023-11-19T04:08:50;3.70;99.90
34460;DHT22;20704;51.260;22.558;2023-11-19T04:10:52;2.00;99.90
34460;DHT22;20704;51.260;22.558;2023-11-19T04:12:55;2.90;99.90
34460;DHT22;20704;51.260;22.558;2023-11-19T04:14:57;3.40;99.90
34460;DHT22;20704;51.260;22.558;2023-11-19T04:17:03;2.10;99.90
34460;DHT22;20704;51.260;22.558;2023-11-19T04:19:05;2.10;99.90
34460;DHT22;20704;51.260;22.558;2023-11-19T04:21:09;3.50;99.90
34460;DHT22;20704;51.260;22.558;2023-11-19T04:23:11;2.10;99.90
34460;DHT22;20704;51.260;22.558;2023-11-19T04:25:13;2.90;99.90
34460;DHT22;20704;51.260;22.558;2023-11-19T04:27:17;2.10;99.90
34460;DHT22;20704;51.260;22.558;2023-11-19T04:29:20;2.10;99.90
34460;DHT22;20704;51.260;22.558;2023-11-19T04:31:22;2.10;99.90
34460;DHT22;20704;51.260;22.558;2023-11-19T04:33:25;2.10;99.90
34460;DHT22;20704;51.260;22.558;2023-11-19T04:35:27;2.30;99.90
34460;DHT22;20704;51.260;22.558;2023-11-19T04:37:30;2.10;99.90
34460;DHT22;20704;51.260;22.558;2023-11-19T04:39:32;2.10;99.90
34460;DHT22;20704;51.260;22.558;2023-11-19T04:41:35;2.10;99.90
34460;DHT22;20704;51.260;22.558;2023-11-19T04:43:38;3.20;1.00
34460;DHT22;20704;51.260;22.558;2023-11-19T04:45:40;2.10;1.00
34460;DHT22;20704;51.260;22.558;2023-11-19T04:47:43;2.10;99.90
34460;DHT22;20704;51.260;22.558;2023-11-19T04:49:46;2.10;99.90
34460;DHT22;20704;51.260;22.558;2023-11-19T04:51:48;2.20;99.90
34460;DHT22;20704;51.260;22.558;2023-11-19T04:53:51;3.60;99.90
34460;DHT22;20704;51.260;22.558;2023-11-19T04:55:53;2.20;99.90
34460;DHT22;20704;51.260;22.558;2023-11-19T04:57:56;2.10;99.90
34460;DHT22;20704;51.260;22.558;2023-11-19T04:59:58;2.40;99.90
34460;DHT22;20704;51.260;22.558;2023-11-19T05:02:01;2.20;99.90
34460;DHT22;20704;51.260;22.558;2023-11-19T05:04:03;2.20;99.90
34460;DHT22;20704;51.260;22.558;2023-11-19T05:06:07;2.20;99.90
34460;DHT22;20704;51.260;22.558;2023-11-19T05:08:09;1.90;99.90
34460;DHT22;20704;51.260;22.558;2023-11-19T05:10:11;3.50;99.90
34460;DHT22;20704;51.260;22.558;2023-11-19T05:12:14;2.10;99.90
34460;DHT22;20704;51.260;22.558;2023-11-19T05:14:16;3.50;99.90
34460;DHT22;20704;51.260;22.558;2023-11-19T05:16:20;2.90;99.90
34460;DHT22;20704;51.260;22.558;2023-11-19T05:18:23;2.70;99.90
34460;DHT22;20704;51.260;22.558;2023-11-19T05:20:25;2.10;99.90
34460;DHT22;20704;51.260;22.558;2023-11-19T05:22:28;2.00;99.90
34460;DHT22;20704;51.260;22.558;2023-11-19T05:24:31;3.70;99.90
34460;DHT22;20704;51.260;22.558;2023-11-19T05:26:35;2.00;99.90
34460;DHT22;20704;51.260;22.558;2023-11-19T05:28:38;1.90;99.90
34460;DHT22;20704;51.260;22.558;2023-11-19T05:30:41;2.20;99.90
34460;DHT22;20704;51.260;22.558;2023-11-19T05:32:44;3.30;99.90
34460;DHT22;20704;51.260;22.558;2023-11-19T05:34:46;3.00;1.00
34460;DHT22;20704;51.260;22.558;2023-11-19T05:36:51;3.70;1.00
34460;DHT22;20704;51.260;22.558;2023-11-19T05:38:54;1.80;1.00
34460;DHT22;20704;51.260;22.558;2023-11-19T05:40:56;2.10;1.00
34460;DHT22;20704;51.260;22.558;2023-11-19T05:42:58;2.30;1.00
34460;DHT22;20704;51.260;22.558;2023-11-19T05:45:01;1.80;1.00
34460;DHT22;20704;51.260;22.558;2023-11-19T05:47:04;1.80;1.00
34460;DHT22;20704;51.260;22.558;2023-11-19T05:49:06;1.80;1.00
34460;DHT22;20704;51.260;22.558;2023-11-19T05:51:09;3.10;1.00
34460;DHT22;20704;51.260;22.558;2023-11-19T05:53:11;1.90;1.00
34460;DHT22;20704;51.260;22.558;2023-11-19T05:55:15;2.50;1.00
34460;DHT22;20704;51.260;22.558;2023-11-19T05:57:18;1.80;1.00
34460;DHT22;20704;51.260;22.558;2023-11-19T05:59:26;1.80;1.00
34460;DHT22;20704;51.260;22.558;2023-11-19T06:01:31;1.80;1.00
34460;DHT22;20704;51.260;22.558;2023-11-19T06:03:34;1.80;1.00
34460;DHT22;20704;51.260;22.558;2023-11-19T06:05:36;2.50;1.00
34460;DHT22;20704;51.260;22.558;2023-11-19T06:09:43;1.90;1.00
34460;DHT22;20704;51.260;22.558;2023-11-19T06:11:46;1.90;1.00
34460;DHT22;20704;51.260;22.558;2023-11-19T06:13:49;2.00;1.00
34460;DHT22;20704;51.260;22.558;2023-11-19T06:15:53;1.90;1.00
34460;DHT22;20704;51.260;22.558;2023-11-19T06:17:55;2.00;1.00
34460;DHT22;20704;51.260;22.558;2023-11-19T06:20:00;2.10;1.00
34460;DHT22;20704;51.260;22.558;2023-11-19T06:22:02;2.30;1.00
34460;DHT22;20704;51.260;22.558;2023-11-19T06:24:05;2.00;1.00
34460;DHT22;20704;51.260;22.558;2023-11-19T06:26:07;2.00;99.90
34460;DHT22;20704;51.260;22.558;2023-11-19T06:28:10;2.00;1.00
34460;DHT22;20704;51.260;22.558;2023-11-19T06:30:13;2.00;99.90
34460;DHT22;20704;51.260;22.558;2023-11-19T06:32:15;2.00;99.90
34460;DHT22;20704;51.260;22.558;2023-11-19T06:34:18;2.00;99.90
34460;DHT22;20704;51.260;22.558;2023-11-19T06:36:20;2.00;99.90
34460;DHT22;20704;51.260;22.558;2023-11-19T06:38:23;2.10;99.90
34460;DHT22;20704;51.260;22.558;2023-11-19T06:40:26;2.60;99.90
34460;DHT22;20704;51.260;22.558;2023-11-19T06:42:28;2.10;99.90
34460;DHT22;20704;51.260;22.558;2023-11-19T06:44:31;2.00;99.90
34460;DHT22;20704;51.260;22.558;2023-11-19T06:46:33;2.00;99.90
34460;DHT22;20704;51.260;22.558;2023-11-19T06:50:38;2.00;99.90
34460;DHT22;20704;51.260;22.558;2023-11-19T06:52:41;1.90;40.30
34460;DHT22;20704;51.260;22.558;2023-11-19T06:54:43;3.80;43.90
34460;DHT22;20704;51.260;22.558;2023-11-19T06:56:48;1.90;39.30
34460;DHT22;20704;51.260;22.558;2023-11-19T06:58:51;2.00;47.60
34460;DHT22;20704;51.260;22.558;2023-11-19T07:00:54;3.40;99.90
34460;DHT22;20704;51.260;22.558;2023-11-19T07:02:56;1.90;87.30
34460;DHT22;20704;51.260;22.558;2023-11-19T07:04:59;1.90;99.90
34460;DHT22;20704;51.260;22.558;2023-11-19T07:07:02;3.20;63.90
34460;DHT22;20704;51.260;22.558;2023-11-19T07:09:04;2.00;99.90
34460;DHT22;20704;51.260;22.558;2023-11-19T07:11:13;2.00;73.70
34460;DHT22;20704;51.260;22.558;2023-11-19T07:13:19;2.20;88.50
34460;DHT22;20704;51.260;22.558;2023-11-19T07:15:21;1.90;47.80
34460;DHT22;20704;51.260;22.558;2023-11-19T07:17:24;2.20;1.00
34460;DHT22;20704;51.260;22.558;2023-11-19T07:19:26;2.10;1.00
34460;DHT22;20704;51.260;22.558;2023-11-19T07:21:29;2.10;1.00
34460;DHT22;20704;51.260;22.558;2023-11-19T07:23:31;2.10;99.90
34460;DHT22;20704;51.260;22.558;2023-11-19T07:25:35;2.10;99.90
34460;DHT22;20704;51.260;22.558;2023-11-19T07:27:38;2.10;99.90
34460;DHT22;20704;51.260;22.558;2023-11-19T07:29:40;2.40;99.90
34460;DHT22;20704;51.260;22.558;2023-11-19T07:31:44;2.10;99.90
34460;DHT22;20704;51.260;22.558;2023-11-19T07:33:47;2.20;99.90
34460;DHT22;20704;51.260;22.558;2023-11-19T07:35:50;2.20;99.90
34460;DHT22;20704;51.260;22.558;2023-11-19T07:37:52;2.20;99.90
34460;DHT22;20704;51.260;22.558;2023-11-19T07:39:55;2.20;99.90
34460;DHT22;20704;51.260;22.558;2023-11-19T07:41:57;2.10;1.00
34460;DHT22;20704;51.260;22.558;2023-11-19T07:44:00;3.50;1.00
34460;DHT22;20704;51.260;22.558;2023-11-19T07:46:03;2.10;1.00
34460;DHT22;20704;51.260;22.558;2023-11-19T07:48:06;2.10;99.90
34460;DHT22;20704;51.260;22.558;2023-11-19T07:50:09;2.10;99.90
34460;DHT22;20704;51.260;22.558;2023-11-19T07:52:12;2.10;99.90
34460;DHT22;20704;51.260;22.558;2023-11-19T07:54:17;2.00;99.90
34460;DHT22;20704;51.260;22.558;2023-11-19T07:56:19;3.20;99.90
34460;DHT22;20704;51.260;22.558;2023-11-19T07:58:21;2.10;99.90
34460;DHT22;20704;51.260;22.558;2023-11-19T08:00:24;1.90;99.90
34460;DHT22;20704;51.260;22.558;2023-11-19T08:02:26;1.90;1.00
34460;DHT22;20704;51.260;22.558;2023-11-19T08:04:29;2.20;1.00
34460;DHT22;20704;51.260;22.558;2023-11-19T08:06:31;1.90;1.00
34460;DHT22;20704;51.260;22.558;2023-11-19T08:08:34;2.90;1.00
34460;DHT22;20704;51.260;22.558;2023-11-19T08:10:36;1.80;1.00
34460;DHT22;20704;51.260;22.558;2023-11-19T08:12:39;1.90;1.00
34460;DHT22;20704;51.260;22.558;2023-11-19T08:14:41;2.00;1.00
34460;DHT22;20704;51.260;22.558;2023-11-19T08:16:44;4.10;1.00
34460;DHT22;20704;51.260;22.558;2023-11-19T08:18:46;3.90;1.00
34460;DHT22;20704;51.260;22.558;2023-11-19T08:20:49;2.10;1.00
34460;DHT22;20704;51.260;22.558;2023-11-19T08:22:54;2.10;99.90
34460;DHT22;20704;51.260;22.558;2023-11-19T08:24:57;2.10;70.30
34460;DHT22;20704;51.260;22.558;2023-11-19T08:26:59;2.20;1.00
34460;DHT22;20704;51.260;22.558;2023-11-19T08:29:05;2.10;1.00
34460;DHT22;20704;51.260;22.558;2023-11-19T08:31:07;3.00;1.00
34460;DHT22;20704;51.260;22.558;2023-11-19T08:33:10;2.50;99.90
34460;DHT22;20704;51.260;22.558;2023-11-19T08:35:13;2.20;99.90
34460;DHT22;20704;51.260;22.558;2023-11-19T08:37:16;2.20;99.90
34460;DHT22;20704;51.260;22.558;2023-11-19T08:39:22;2.00;99.90
34460;DHT22;20704;51.260;22.558;2023-11-19T08:41:25;2.20;99.90
34460;DHT22;20704;51.260;22.558;2023-11-19T08:43:27;2.10;1.00
34460;DHT22;20704;51.260;22.558;2023-11-19T08:45:31;2.10;12.30
34460;DHT22;20704;51.260;22.558;2023-11-19T08:47:36;2.80;1.00
34460;DHT22;20704;51.260;22.558;2023-11-19T08:49:41;1.90;1.00
34460;DHT22;20704;51.260;22.558;2023-11-19T08:51:43;2.40;1.00
34460;DHT22;20704;51.260;22.558;2023-11-19T08:53:49;2.70;21.20
34460;DHT22;20704;51.260;22.558;2023-11-19T08:55:52;1.80;99.90
34460;DHT22;20704;51.260;22.558;2023-11-19T08:57:55;1.90;1.00
34460;DHT22;20704;51.260;22.558;2023-11-19T08:59:57;1.90;1.00
34460;DHT22;20704;51.260;22.558;2023-11-19T09:01:59;1.90;43.90
34460;DHT22;20704;51.260;22.558;2023-11-19T09:04:02;1.90;1.00
34460;DHT22;20704;51.260;22.558;2023-11-19T09:06:05;2.00;1.00
34460;DHT22;20704;51.260;22.558;2023-11-19T09:08:07;2.00;99.90
34460;DHT22;20704;51.260;22.558;2023-11-19T09:10:11;2.00;99.90
34460;DHT22;20704;51.260;22.558;2023-11-19T09:12:14;2.00;47.50
34460;DHT22;20704;51.260;22.558;2023-11-19T09:14:16;2.10;99.90
34460;DHT22;20704;51.260;22.558;2023-11-19T09:16:20;2.60;95.10
34460;DHT22;20704;51.260;22.558;2023-11-19T09:18:24;2.00;1.00
34460;DHT22;20704;51.260;22.558;2023-11-19T09:20:26;2.10;1.00
34460;DHT22;20704;51.260;22.558;2023-11-19T09:22:28;2.00;1.00
34460;DHT22;20704;51.260;22.558;2023-11-19T09:24:31;2.10;99.90
34460;DHT22;20704;51.260;22.558;2023-11-19T09:26:33;2.00;1.00
34460;DHT22;20704;51.260;22.558;2023-11-19T09:28:36;3.90;91.20
34460;DHT22;20704;51.260;22.558;2023-11-19T09:30:39;2.20;99.90
34460;DHT22;20704;51.260;22.558;2023-11-19T09:32:41;2.20;99.90
34460;DHT22;20704;51.260;22.558;2023-11-19T09:34:43;2.20;99.90
34460;DHT22;20704;51.260;22.558;2023-11-19T09:36:46;2.20;99.90
34460;DHT22;20704;51.260;22.558;2023-11-19T09:38:48;3.20;1.00
34460;DHT22;20704;51.260;22.558;2023-11-19T09:40:50;2.10;1.00
34460;DHT22;20704;51.260;22.558;2023-11-19T09:42:53;2.10;1.00
34460;DHT22;20704;51.260;22.558;2023-11-19T09:44:56;2.10;1.00
34460;DHT22;20704;51.260;22.558;2023-11-19T09:47:00;2.10;81.60
34460;DHT22;20704;51.260;22.558;2023-11-19T09:49:04;3.00;87.60
34460;DHT22;20704;51.260;22.558;2023-11-19T09:51:10;2.00;99.90
34460;DHT22;20704;51.260;22.558;2023-11-19T09:53:13;1.80;99.90
34460;DHT22;20704;51.260;22.558;2023-11-19T09:55:17;1.90;54.00
34460;DHT22;20704;51.260;22.558;2023-11-19T09:57:20;1.90;99.90
34460;DHT22;20704;51.260;22.558;2023-11-19T09:59:23;2.10;1.00
34460;DHT22;20704;51.260;22.558;2023-11-19T10:01:25;1.90;1.00
34460;DHT22;20704;51.260;22.558;2023-11-19T10:03:33;3.30;1.00
34460;DHT22;20704;51.260;22.558;2023-11-19T10:05:41;2.00;1.00
34460;DHT22;20704;51.260;22.558;2023-11-19T10:07:44;3.00;30.90
34460;DHT22;20704;51.260;22.558;2023-11-19T10:09:47;1.80;99.90
34460;DHT22;20704;51.260;22.558;2023-11-19T10:11:50;1.80;99.90
34460;DHT22;20704;51.260;22.558;2023-11-19T10:13:54;1.80;99.90
34460;DHT22;20704;51.260;22.558;2023-11-19T10:15:56;1.80;99.90
34460;DHT22;20704;51.260;22.558;2023-11-19T10:18:02;3.00;99.90
34460;DHT22;20704;51.260;22.558;2023-11-19T10:20:08;1.80;1.00
34460;DHT22;20704;51.260;22.558;2023-11-19T10:22:11;1.70;1.00
34460;DHT22;20704;51.260;22.558;2023-11-19T10:24:13;1.70;99.90
34460;DHT22;20704;51.260;22.558;2023-11-19T10:26:31;1.80;99.90
34460;DHT22;20704;51.260;22.558;2023-11-19T10:28:40;1.80;65.70
34460;DHT22;20704;51.260;22.558;2023-11-19T10:30:48;2.00;1.00
34460;DHT22;20704;51.260;22.558;2023-11-19T10:35:09;1.90;99.90
34460;DHT22;20704;51.260;22.558;2023-11-19T10:37:30;1.90;99.90
34460;DHT22;20704;51.260;22.558;2023-11-19T10:39:54;1.90;99.90
34460;DHT22;20704;51.260;22.558;2023-11-19T10:41:57;2.50;99.90
34460;DHT22;20704;51.260;22.558;2023-11-19T10:44:02;2.00;99.90
34460;DHT22;20704;51.260;22.558;2023-11-19T10:46:12;2.00;99.90
34460;DHT22;20704;51.260;22.558;2023-11-19T10:48:15;2.10;1.00
34460;DHT22;20704;51.260;22.558;2023-11-19T10:50:18;3.20;99.90
34460;DHT22;20704;51.260;22.558;2023-11-19T10:52:20;2.70;99.90
34460;DHT22;20704;51.260;22.558;2023-11-19T10:54:23;1.80;1.90
34460;DHT22;20704;51.260;22.558;2023-11-19T10:56:29;2.00;1.00
34460;DHT22;20704;51.260;22.558;2023-11-19T10:58:33;1.80;1.00
34460;DHT22;20704;51.260;22.558;2023-11-19T11:01:01;3.40;99.90
34460;DHT22;20704;51.260;22.558;2023-11-19T11:03:10;2.00;99.90
34460;DHT22;20704;51.260;22.558;2023-11-19T11:05:14;1.80;99.90
34460;DHT22;20704;51.260;22.558;2023-11-19T11:07:20;1.80;60.10
34460;DHT22;20704;51.260;22.558;2023-11-19T11:09:28;1.80;99.90
34460;DHT22;20704;51.260;22.558;2023-11-19T11:11:31;1.70;1.00
34460;DHT22;20704;51.260;22.558;2023-11-19T11:13:35;3.20;98.80
34460;DHT22;20704;51.260;22.558;2023-11-19T11:15:39;4.00;1.00
34460;DHT22;20704;51.260;22.558;2023-11-19T11:17:45;4.10;99.90
34460;DHT22;20704;51.260;22.558;2023-11-19T11:19:48;4.10;99.90
34460;DHT22;20704;51.260;22.558;2023-11-19T11:22:06;4.10;1.00
34460;DHT22;20704;51.260;22.558;2023-11-19T11:25:06;1.80;1.00
34460;DHT22;20704;51.260;22.558;2023-11-19T11:30:34;1.90;99.90
34460;DHT22;20704;51.260;22.558;2023-11-19T11:37:34;2.00;1.00
34460;DHT22;20704;51.260;22.558;2023-11-19T11:39:40;1.80;99.90
34460;DHT22;20704;51.260;22.558;2023-11-19T11:41:45;1.80;99.90
34460;DHT22;20704;51.260;22.558;2023-11-19T11:43:49;1.80;99.90
34460;DHT22;20704;51.260;22.558;2023-11-19T11:45:52;1.80;99.90
34460;DHT22;20704;51.260;22.558;2023-11-19T11:50:06;2.00;1.00
34460;DHT22;20704;51.260;22.558;2023-11-19T11:52:11;1.90;1.00
34460;DHT22;20704;51.260;22.558;2023-11-19T11:56:33;4.00;1.00
34460;DHT22;20704;51.260;22.558;2023-11-19T11:58:36;1.80;1.00
34460;DHT22;20704;51.260;22.558;2023-11-19T12:00:40;1.80;99.90
34460;DHT22;20704;51.260;22.558;2023-11-19T12:02:44;1.80;17.50
34460;DHT22;20704;51.260;22.558;2023-11-19T12:04:51;1.80;99.90
34460;DHT22;20704;51.260;22.558;2023-11-19T12:07:04;1.90;99.90
34460;DHT22;20704;51.260;22.558;2023-11-19T12:09:08;1.80;99.90
34460;DHT22;20704;51.260;22.558;2023-11-19T12:11:10;1.80;1.00
34460;DHT22;20704;51.260;22.558;2023-11-19T12:13:16;1.70;98.80
34460;DHT22;20704;51.260;22.558;2023-11-19T12:15:21;1.50;99.90
34460;DHT22;20704;51.260;22.558;2023-11-19T12:19:43;2.40;99.90
34460;DHT22;20704;51.260;22.558;2023-11-19T12:21:47;2.00;99.90
34460;DHT22;20704;51.260;22.558;2023-11-19T12:23:49;1.60;99.90
34460;DHT22;20704;51.260;22.558;2023-11-19T12:25:52;1.90;99.90
34460;DHT22;20704;51.260;22.558;2023-11-19T12:27:55;1.70;99.90
34460;DHT22;20704;51.260;22.558;2023-11-19T12:30:01;1.70;99.90
34460;DHT22;20704;51.260;22.558;2023-11-19T12:32:08;2.60;99.90
34460;DHT22;20704;51.260;22.558;2023-11-19T12:34:15;1.80;99.90
34460;DHT22;20704;51.260;22.558;2023-11-19T12:36:17;3.30;99.90
34460;DHT22;20704;51.260;22.558;2023-11-19T12:38:25;1.70;99.90
34460;DHT22;20704;51.260;22.558;2023-11-19T12:40:27;1.70;99.90
34460;DHT22;20704;51.260;22.558;2023-11-19T12:42:36;1.70;1.00
34460;DHT22;20704;51.260;22.558;2023-11-19T12:44:38;1.70;1.00
34460;DHT22;20704;51.260;22.558;2023-11-19T12:48:48;1.70;1.00
34460;DHT22;20704;51.260;22.558;2023-11-19T12:50:53;3.10;51.20
34460;DHT22;20704;51.260;22.558;2023-11-19T12:52:56;1.60;99.90
34460;DHT22;20704;51.260;22.558;2023-11-19T12:55:03;1.80;99.90
34460;DHT22;20704;51.260;22.558;2023-11-19T12:57:05;1.60;99.90
34460;DHT22;20704;51.260;22.558;2023-11-19T12:59:12;1.70;99.90
34460;DHT22;20704;51.260;22.558;2023-11-19T13:01:18;1.90;99.90
34460;DHT22;20704;51.260;22.558;2023-11-19T13:03:33;2.30;99.90
34460;DHT22;20704;51.260;22.558;2023-11-19T13:05:36;1.60;99.90
34460;DHT22;20704;51.260;22.558;2023-11-19T13:07:40;1.90;99.90
34460;DHT22;20704;51.260;22.558;2023-11-19T13:09:43;1.70;99.90
34460;DHT22;20704;51.260;22.558;2023-11-19T13:11:46;1.80;99.90
34460;DHT22;20704;51.260;22.558;2023-11-19T13:13:55;1.70;99.90
34460;DHT22;20704;51.260;22.558;2023-11-19T13:16:03;1.90;99.90
34460;DHT22;20704;51.260;22.558;2023-11-19T13:18:08;3.10;99.90
34460;DHT22;20704;51.260;22.558;2023-11-19T13:20:11;1.70;99.90
34460;DHT22;20704;51.260;22.558;2023-11-19T13:22:18;1.80;99.90
34460;DHT22;20704;51.260;22.558;2023-11-19T13:24:21;1.80;99.90
34460;DHT22;20704;51.260;22.558;2023-11-19T13:26:23;2.90;99.90
34460;DHT22;20704;51.260;22.558;2023-11-19T13:28:26;1.80;99.90
34460;DHT22;20704;51.260;22.558;2023-11-19T13:30:30;1.90;99.90